Time;durP1;ratioP1;P1;durP2;ratioP2;P2;SDS_P1;SDS_P2;PMS_P1;PMS_P2;Temp;Humidity;BMP_temperature;BMP_pressure;BME280_temperature;BME280_humidity;BME280_pressure;Samples;Min_cycle;Max_cycle;Signal;HPM_P1;HPM_P2
2023/10/23 00:01:27;;;;;;;;;1.00;1.00;;;;;21.65;57.39;100485.67;110132;1265;19370;-34
2023/10/23 00:03:55;;;;;;;;;1.00;1.00;;;;;21.67;57.21;100489.37;110125;1250;22251;-33
2023/10/23 00:06:22;;;;;;;;;1.00;1.00;;;;;21.69;57.27;100490.34;110088;1265;18565;-34
2023/10/23 00:08:49;;;;;;;;;1.50;1.00;;;;;21.72;57.19;100497.08;110136;1251;20832;-33
2023/10/23 00:11:16;;;;;;;;;1.00;1.00;;;;;21.68;57.20;100491.70;110135;1252;19592;-34
2023/10/23 00:13:44;;;;;;;;;1.00;1.00;;;;;21.71;57.13;100496.00;110137;1265;20042;-35
2023/10/23 00:16:11;;;;;;;;;1.00;1.00;;;;;21.69;57.17;100496.72;110147;1251;21913;-34
2023/10/23 00:18:38;;;;;;;;;1.00;1.00;;;;;21.66;57.12;100502.18;110126;1265;19599;-33
2023/10/23 00:21:06;;;;;;;;;1.00;1.00;;;;;21.67;57.31;100497.88;110114;1251;20079;-34
2023/10/23 00:23:33;;;;;;;;;1.00;1.00;;;;;21.67;57.27;100505.02;110095;1250;20629;-35
2023/10/23 00:26:00;;;;;;;;;1.00;1.00;;;;;21.67;57.35;100507.80;110095;1265;20764;-33
2023/10/23 00:28:27;;;;;;;;;1.00;1.00;;;;;21.67;57.29;100518.33;110147;1265;19742;-34
2023/10/23 00:30:55;;;;;;;;;2.00;1.00;;;;;21.69;56.90;100527.08;110128;1265;19503;-34
2023/10/23 00:33:22;;;;;;;;;1.00;1.00;;;;;21.67;57.23;100528.79;110107;1253;19608;-35
2023/10/23 00:35:49;;;;;;;;;1.00;1.00;;;;;21.66;56.93;100531.63;110155;1265;21219;-34
2023/10/23 00:38:17;;;;;;;;;1.00;1.00;;;;;21.66;57.23;100530.21;110116;1265;20671;-33
2023/10/23 00:40:44;;;;;;;;;2.00;2.00;;;;;21.68;56.79;100534.61;110136;1265;18398;-34
2023/10/23 00:43:12;;;;;;;;;1.00;1.00;;;;;21.66;57.12;100534.02;110135;1259;20016;-34
2023/10/23 00:45:39;;;;;;;;;1.50;1.50;;;;;21.65;57.12;100542.81;110135;1250;21508;-35
2023/10/23 00:48:06;;;;;;;;;1.00;1.00;;;;;21.69;57.03;100546.23;110143;1251;19684;-33
2023/10/23 00:50:34;;;;;;;;;1.00;1.00;;;;;21.68;56.86;100544.48;110129;1253;19944;-33
2023/10/23 00:53:01;;;;;;;;;1.00;1.00;;;;;21.68;56.82;100545.58;110139;1250;19425;-33
2023/10/23 00:55:28;;;;;;;;;1.00;1.00;;;;;21.68;57.01;100547.59;110104;1265;18837;-33
2023/10/23 00:57:56;;;;;;;;;1.50;1.50;;;;;21.65;56.95;100544.12;110132;1259;20059;-33
2023/10/23 01:00:23;;;;;;;;;1.50;1.00;;;;;21.65;57.07;100551.64;110124;1265;19389;-33
2023/10/23 01:02:51;;;;;;;;;2.00;1.00;;;;;21.69;56.91;100554.45;110128;1252;19639;-34
2023/10/23 01:05:18;;;;;;;;;1.00;1.00;;;;;21.71;56.65;100552.97;110045;1253;19976;-33
2023/10/23 01:07:45;;;;;;;;;1.00;1.00;;;;;21.72;56.63;100552.58;110123;1265;21076;-33
2023/10/23 01:10:13;;;;;;;;;1.00;1.00;;;;;21.69;56.58;100550.86;110132;1251;19720;-34
2023/10/23 01:12:41;;;;;;;;;2.00;1.00;;;;;21.67;56.87;100547.33;110125;1250;21123;-34
2023/10/23 01:15:08;;;;;;;;;1.00;1.00;;;;;21.66;56.75;100547.88;110137;1265;19372;-35
2023/10/23 01:17:35;;;;;;;;;1.00;1.00;;;;;21.64;57.02;100550.71;110108;1250;18388;-33
2023/10/23 01:20:03;;;;;;;;;1.00;1.00;;;;;21.67;56.71;100550.33;110065;1265;19915;-33
2023/10/23 01:22:30;;;;;;;;;1.00;1.00;;;;;21.68;56.66;100553.27;110094;1258;20795;-33
2023/10/23 01:24:58;;;;;;;;;1.00;1.00;;;;;21.67;56.58;100554.30;110141;1265;22643;-33
2023/10/23 01:27:25;;;;;;;;;1.00;1.00;;;;;21.69;56.74;100559.74;110129;1260;18747;-33
2023/10/23 01:29:52;;;;;;;;;1.00;1.00;;;;;21.68;56.67;100557.19;110143;1253;20791;-33
2023/10/23 01:32:20;;;;;;;;;1.00;1.00;;;;;21.65;56.75;100561.56;110058;1253;19635;-33
2023/10/23 01:35:03;;;;;;;;;1.00;1.00;;;;;21.64;56.52;100564.17;110113;1250;20099;-33
2023/10/23 01:37:30;;;;;;;;;2.00;1.00;;;;;21.64;56.74;100564.89;110143;1265;19212;-33
2023/10/23 01:39:57;;;;;;;;;2.00;1.00;;;;;21.63;56.72;100560.27;110120;1251;19994;-35
2023/10/23 01:42:28;;;;;;;;;2.00;1.00;;;;;21.64;56.65;100554.15;110123;1250;18606;-34
2023/10/23 01:44:56;;;;;;;;;1.00;1.00;;;;;21.65;56.52;100555.40;110127;1251;21531;-33
2023/10/23 01:47:24;;;;;;;;;1.00;1.00;;;;;21.66;56.55;100553.64;110129;1250;19843;-33
2023/10/23 01:49:51;;;;;;;;;1.00;1.00;;;;;21.68;56.49;100554.13;110105;1250;19943;-34
2023/10/23 01:52:18;;;;;;;;;1.00;1.00;;;;;21.67;56.53;100553.88;110122;1251;20791;-34
2023/10/23 01:54:46;;;;;;;;;1.00;1.00;;;;;21.67;56.45;100559.59;110085;1250;22629;-34
2023/10/23 01:57:13;;;;;;;;;1.00;1.00;;;;;21.65;56.43;100554.70;110118;1250;20014;-34
2023/10/23 01:59:41;;;;;;;;;1.00;1.00;;;;;21.69;56.33;100555.65;110138;1251;20827;-33
2023/10/23 02:02:08;;;;;;;;;2.00;2.00;;;;;21.68;56.49;100556.52;110171;1250;19653;-34
2023/10/23 02:04:38;;;;;;;;;1.00;1.00;;;;;21.69;56.44;100554.52;110134;1265;22645;-35
2023/10/23 02:07:05;;;;;;;;;1.00;1.00;;;;;21.64;56.33;100551.42;110180;1250;20718;-34
2023/10/23 02:09:33;;;;;;;;;1.00;1.00;;;;;21.67;56.57;100543.61;110144;1265;18673;-34
2023/10/23 02:12:01;;;;;;;;;1.00;1.00;;;;;21.66;56.23;100541.55;110151;1253;20240;-34
2023/10/23 02:14:30;;;;;;;;;1.00;1.00;;;;;21.66;56.22;100541.11;110104;1265;19547;-35
2023/10/23 02:16:57;;;;;;;;;1.00;1.00;;;;;21.66;56.25;100541.55;110050;1251;19654;-34
2023/10/23 02:19:24;;;;;;;;;1.00;1.00;;;;;21.70;56.13;100544.52;110112;1252;20033;-34
2023/10/23 02:21:52;;;;;;;;;2.00;2.00;;;;;21.68;56.18;100551.25;110107;1251;22031;-35
2023/10/23 02:24:19;;;;;;;;;1.00;1.00;;;;;21.68;56.40;100557.08;110165;1250;18402;-32
2023/10/23 02:26:47;;;;;;;;;1.00;1.00;;;;;21.69;56.09;100560.18;110122;1265;21504;-33
2023/10/23 02:29:14;;;;;;;;;1.00;1.00;;;;;21.67;56.13;100558.83;110115;1253;20821;-35
2023/10/23 02:31:41;;;;;;;;;1.00;1.00;;;;;21.62;56.23;100555.36;110118;1253;20802;-34
2023/10/23 02:34:09;;;;;;;;;1.00;1.00;;;;;21.64;56.25;100563.64;110130;1253;20074;-34
2023/10/23 02:36:36;;;;;;;;;1.00;1.00;;;;;21.69;56.08;100564.00;110120;1251;22031;-31
2023/10/23 02:39:04;;;;;;;;;2.00;2.00;;;;;21.68;56.04;100565.31;110116;1265;18391;-34
2023/10/23 02:41:31;;;;;;;;;1.00;1.00;;;;;21.63;56.33;100566.69;110137;1250;21992;-34
2023/10/23 02:43:59;;;;;;;;;1.00;1.00;;;;;21.63;56.26;100566.36;110140;1251;20721;-34
2023/10/23 02:46:26;;;;;;;;;1.00;1.00;;;;;21.66;56.06;100566.41;110141;1259;21147;-34
2023/10/23 02:48:53;;;;;;;;;1.00;1.00;;;;;21.66;56.05;100569.02;110136;1250;22409;-34
2023/10/23 02:51:21;;;;;;;;;1.00;1.00;;;;;21.64;56.08;100573.06;110143;1250;22106;-34
2023/10/23 02:53:49;;;;;;;;;1.00;1.00;;;;;21.64;56.06;100573.83;110128;1251;19686;-34
2023/10/23 02:56:16;;;;;;;;;1.00;1.00;;;;;21.63;56.10;100578.86;110108;1265;22769;-34
2023/10/23 02:58:43;;;;;;;;;1.00;1.00;;;;;21.61;56.11;100586.05;110112;1265;20755;-34
2023/10/23 03:01:11;;;;;;;;;1.00;1.00;;;;;21.62;56.09;100586.55;110139;1250;19694;-34
2023/10/23 03:03:38;;;;;;;;;1.00;1.00;;;;;21.67;55.95;100586.73;110114;1250;20130;-34
2023/10/23 03:06:06;;;;;;;;;1.00;1.00;;;;;21.64;55.93;100591.45;110104;1265;19385;-34
2023/10/23 03:08:33;;;;;;;;;1.00;1.00;;;;;21.64;56.02;100596.19;110101;1265;20165;-33
2023/10/23 03:11:00;;;;;;;;;1.00;1.00;;;;;21.64;56.01;100594.61;110135;1265;18610;-34
2023/10/23 03:13:28;;;;;;;;;1.00;1.00;;;;;21.64;55.93;100593.78;110046;1251;20786;-34
2023/10/23 03:15:55;;;;;;;;;1.00;1.00;;;;;21.65;56.15;100592.58;110113;1249;19673;-33
2023/10/23 03:18:23;;;;;;;;;1.00;1.00;;;;;21.64;55.98;100592.21;110088;1266;22178;-33
2023/10/23 03:20:50;;;;;;;;;3.00;2.00;;;;;21.64;55.94;100589.98;110119;1250;21027;-33
2023/10/23 03:23:18;;;;;;;;;1.00;1.00;;;;;21.67;56.19;100591.42;110121;1265;18700;-35
2023/10/23 03:25:45;;;;;;;;;1.00;1.00;;;;;21.64;55.95;100590.35;110126;1253;20199;-35
2023/10/23 03:28:12;;;;;;;;;1.00;1.00;;;;;21.61;56.04;100589.44;110152;1251;19319;-35
2023/10/23 03:30:40;;;;;;;;;2.00;2.00;;;;;21.62;55.84;100588.39;110105;1251;19672;-35
2023/10/23 03:33:07;;;;;;;;;1.00;1.00;;;;;21.63;55.81;100593.46;110120;1250;23334;-35
2023/10/23 03:35:35;;;;;;;;;2.00;2.00;;;;;21.64;55.93;100595.26;110158;1257;20702;-34
2023/10/23 03:38:03;;;;;;;;;1.00;1.00;;;;;21.64;55.90;100599.67;110123;1251;19626;-34
2023/10/23 03:40:30;;;;;;;;;2.00;2.00;;;;;21.61;55.91;100598.88;110162;1250;20009;-34
2023/10/23 03:42:58;;;;;;;;;1.50;1.50;;;;;21.61;55.91;100596.63;110174;1252;20760;-34
2023/10/23 03:45:25;;;;;;;;;2.00;2.00;;;;;21.63;55.73;100599.35;110146;1265;21613;-34
2023/10/23 03:47:53;;;;;;;;;1.50;1.50;;;;;21.64;55.91;100595.64;110168;1265;22868;-34
2023/10/23 03:50:20;;;;;;;;;1.00;1.00;;;;;21.63;55.81;100597.77;110156;1250;20799;-34
2023/10/23 03:52:48;;;;;;;;;1.00;1.00;;;;;21.63;55.84;100598.64;110127;1253;22859;-34
2023/10/23 03:55:15;;;;;;;;;4.00;4.00;;;;;21.60;55.88;100600.67;110106;1265;18615;-34
2023/10/23 03:57:42;;;;;;;;;1.00;1.00;;;;;21.60;55.96;100597.78;110181;1265;21582;-33
2023/10/23 04:00:11;;;;;;;;;2.00;2.00;;;;;21.62;56.01;100598.44;110197;1253;19630;-33
2023/10/23 04:02:38;;;;;;;;;1.00;1.00;;;;;21.61;55.91;100593.14;110142;1259;20101;-33
2023/10/23 04:05:06;;;;;;;;;2.00;2.00;;;;;21.62;55.71;100593.73;110101;1250;20580;-35
2023/10/23 04:07:33;;;;;;;;;1.50;1.50;;;;;21.61;56.00;100588.95;110135;1265;18569;-34
2023/10/23 04:10:01;;;;;;;;;1.50;1.50;;;;;21.59;55.85;100592.73;110115;1265;20021;-33
2023/10/23 04:12:28;;;;;;;;;2.00;2.00;;;;;21.64;55.73;100594.44;110140;1265;22323;-33
2023/10/23 04:14:55;;;;;;;;;2.00;2.00;;;;;21.64;55.75;100597.60;110136;1259;19548;-34
2023/10/23 04:17:23;;;;;;;;;2.00;2.00;;;;;21.63;55.83;100603.73;110113;1265;22708;-34
2023/10/23 04:19:50;;;;;;;;;1.00;1.00;;;;;21.62;55.70;100606.17;110129;1251;20793;-34
2023/10/23 04:22:18;;;;;;;;;1.00;1.00;;;;;21.63;55.78;100608.95;110102;1253;22535;-33
2023/10/23 04:24:47;;;;;;;;;2.00;1.00;;;;;21.63;55.68;100608.63;110135;1251;20072;-33
2023/10/23 04:27:14;;;;;;;;;1.00;1.00;;;;;21.65;55.56;100615.59;110154;1250;20777;-33
2023/10/23 04:29:42;;;;;;;;;2.00;2.00;;;;;21.63;55.63;100618.27;110127;1259;19521;-34
2023/10/23 04:32:09;;;;;;;;;1.00;1.00;;;;;21.63;55.69;100621.38;110135;1259;21342;-34
2023/10/23 04:34:36;;;;;;;;;2.00;2.00;;;;;21.61;55.59;100623.90;110125;1265;19709;-34
2023/10/23 04:37:04;;;;;;;;;2.00;2.00;;;;;21.60;55.52;100625.04;110079;1250;19548;-34
2023/10/23 04:39:31;;;;;;;;;2.00;2.00;;;;;21.59;55.64;100623.95;110117;1265;22267;-34
2023/10/23 04:41:59;;;;;;;;;2.00;2.00;;;;;21.61;55.59;100629.29;110117;1253;20777;-33
2023/10/23 04:44:26;;;;;;;;;2.67;2.67;;;;;21.63;55.79;100629.17;110120;1250;18378;-33
2023/10/23 04:46:54;;;;;;;;;2.00;2.00;;;;;21.60;55.57;100632.23;110118;1250;21362;-34
2023/10/23 04:49:21;;;;;;;;;1.00;1.00;;;;;21.63;55.68;100636.27;110124;1252;20755;-34
2023/10/23 04:51:49;;;;;;;;;1.67;1.67;;;;;21.64;55.53;100637.95;110087;1250;23375;-33
2023/10/23 04:54:16;;;;;;;;;3.00;2.00;;;;;21.62;55.50;100645.52;110106;1253;20056;-33
2023/10/23 04:56:43;;;;;;;;;2.00;2.00;;;;;21.59;55.65;100645.98;110095;1251;20770;-33
2023/10/23 04:59:11;;;;;;;;;3.00;3.00;;;;;21.63;55.37;100652.73;110089;1265;19624;-35
2023/10/23 05:01:38;;;;;;;;;2.00;2.00;;;;;21.64;55.59;100655.17;110126;1265;18701;-33
2023/10/23 05:04:06;;;;;;;;;2.00;2.00;;;;;21.61;55.55;100651.20;110068;1253;21148;-34
2023/10/23 05:06:33;;;;;;;;;2.00;2.00;;;;;21.63;55.65;100654.80;109673;1265;557624;-34
2023/10/23 05:09:00;;;;;;;;;2.00;2.00;;;;;21.61;55.37;100658.23;110048;1265;18836;-34
2023/10/23 05:11:28;;;;;;;;;4.00;4.00;;;;;21.62;55.66;100657.52;110121;1265;19379;-34
2023/10/23 05:13:55;;;;;;;;;1.50;1.50;;;;;21.62;55.57;100667.83;110147;1251;19646;-34
2023/10/23 05:16:23;;;;;;;;;2.00;2.00;;;;;21.61;55.56;100673.77;110145;1253;20037;-34
2023/10/23 05:18:50;;;;;;;;;2.00;2.00;;;;;21.62;55.44;100676.94;110122;1250;20702;-34
2023/10/23 05:21:17;;;;;;;;;2.00;2.00;;;;;21.60;55.39;100679.50;110116;1259;20209;-34
2023/10/23 05:23:45;;;;;;;;;2.00;2.00;;;;;21.58;55.64;100681.48;110012;1265;18865;-34
2023/10/23 05:26:14;;;;;;;;;2.00;2.00;;;;;21.61;55.52;100679.39;110126;1265;19494;-35
2023/10/23 05:28:41;;;;;;;;;2.00;2.00;;;;;21.61;55.60;100680.05;110136;1253;19671;-35
2023/10/23 05:31:09;;;;;;;;;2.00;2.00;;;;;21.61;55.55;100682.45;110118;1253;20556;-35
2023/10/23 05:33:37;;;;;;;;;2.00;2.00;;;;;21.60;55.55;100686.16;110194;1257;20904;-34
2023/10/23 05:36:04;;;;;;;;;2.00;2.00;;;;;21.62;56.22;100683.91;110144;1265;19544;-34
2023/10/23 05:38:32;;;;;;;;;2.00;2.00;;;;;21.68;57.16;100686.40;110171;1259;20079;-32
2023/10/23 05:40:59;;;;;;;;;4.00;2.00;;;;;21.65;57.24;100688.92;110143;1251;22257;-34
2023/10/23 05:43:27;;;;;;;;;2.00;2.00;;;;;21.65;56.79;100689.41;110170;1266;19869;-34
2023/10/23 05:45:54;;;;;;;;;2.00;2.00;;;;;21.68;58.10;100692.35;110135;1249;21173;-33
2023/10/23 05:48:22;;;;;;;;;2.00;2.00;;;;;21.73;58.85;100699.04;110094;1250;19859;-34
2023/10/23 05:50:49;;;;;;;;;4.00;4.00;;;;;21.73;59.00;100700.07;110113;1250;18630;-34
2023/10/23 05:53:17;;;;;;;;;2.00;2.00;;;;;21.72;59.21;100705.41;110142;1253;20360;-34
2023/10/23 05:55:44;;;;;;;;;2.00;2.00;;;;;21.76;59.79;100712.01;110158;1253;21982;-34
2023/10/23 05:58:11;;;;;;;;;5.00;4.67;;;;;21.73;58.97;100706.77;110115;1265;18485;-35
2023/10/23 06:00:39;;;;;;;;;4.00;4.00;;;;;21.75;59.17;100711.58;110131;1250;20451;-34
2023/10/23 06:03:06;;;;;;;;;2.00;2.00;;;;;21.72;58.82;100710.54;110149;1265;20707;-35
2023/10/23 06:05:34;;;;;;;;;2.00;2.00;;;;;21.75;58.78;100706.34;110089;1251;20093;-34
2023/10/23 06:08:01;;;;;;;;;2.00;2.00;;;;;21.78;58.84;100714.61;110150;1265;18642;-33
2023/10/23 06:10:29;;;;;;;;;4.00;4.00;;;;;21.78;58.48;100720.83;110147;1251;20998;-34
2023/10/23 06:12:56;;;;;;;;;4.00;2.00;;;;;21.72;58.62;100725.86;110130;1251;19617;-34
2023/10/23 06:15:24;;;;;;;;;4.00;4.00;;;;;21.68;58.78;100723.09;110099;1265;19714;-34
2023/10/23 06:17:51;;;;;;;;;2.00;2.00;;;;;21.66;58.73;100730.73;110128;1251;20995;-34
2023/10/23 06:20:19;;;;;;;;;4.00;2.00;;;;;21.64;58.76;100736.90;110109;1250;19643;-35
2023/10/23 06:22:46;;;;;;;;;2.00;2.00;;;;;21.66;58.45;100734.82;110125;1251;20192;-34
2023/10/23 06:25:14;;;;;;;;;4.00;2.00;;;;;21.66;58.44;100733.95;110135;1265;20554;-34
2023/10/23 06:27:41;;;;;;;;;2.00;2.00;;;;;21.64;58.42;100737.23;110106;1251;21961;-34
2023/10/23 06:30:08;;;;;;;;;4.00;4.00;;;;;21.63;58.11;100744.42;110104;1265;18683;-34
2023/10/23 06:32:36;;;;;;;;;2.00;2.00;;;;;21.62;58.29;100746.94;110132;1265;20439;-34
2023/10/23 06:35:04;;;;;;;;;2.00;2.00;;;;;21.62;57.93;100750.21;110129;1257;18601;-34
2023/10/23 06:37:31;;;;;;;;;2.67;2.67;;;;;21.61;58.13;100746.23;110172;1265;20255;-34
2023/10/23 06:39:59;;;;;;;;;2.00;2.00;;;;;21.64;58.14;100746.88;110110;1266;20528;-34
2023/10/23 06:42:26;;;;;;;;;1.00;1.00;;;;;21.60;57.91;100748.69;110135;1257;18384;-34
2023/10/23 06:44:54;;;;;;;;;2.00;2.00;;;;;21.60;58.01;100751.84;110133;1265;18643;-34
2023/10/23 06:47:21;;;;;;;;;2.00;2.00;;;;;21.63;57.79;100754.95;110122;1250;20804;-34
2023/10/23 06:49:49;;;;;;;;;2.00;2.00;;;;;21.65;57.91;100757.51;110140;1265;18319;-34
2023/10/23 06:52:16;;;;;;;;;2.00;2.00;;;;;21.69;57.42;100761.70;110104;1250;21488;-34
2023/10/23 06:54:43;;;;;;;;;2.00;2.00;;;;;21.68;57.32;100765.62;110127;1265;19324;-34
2023/10/23 06:57:11;;;;;;;;;2.00;2.00;;;;;21.69;57.44;100763.98;110116;1265;19491;-34
2023/10/23 06:59:38;;;;;;;;;4.00;4.00;;;;;21.68;57.57;100764.53;110127;1265;18515;-33
2023/10/23 07:02:06;;;;;;;;;3.00;3.00;;;;;21.70;57.25;100767.58;110025;1265;20701;-34
2023/10/23 07:04:34;;;;;;;;;5.00;4.00;;;;;21.63;57.33;100769.39;110084;1251;20149;-34
2023/10/23 07:07:01;;;;;;;;;4.50;4.00;;;;;21.66;57.07;100769.27;110182;1250;22203;-34
2023/10/23 07:09:29;;;;;;;;;7.33;5.00;;;;;21.66;57.26;100776.04;110129;1251;20708;-34
2023/10/23 07:11:56;;;;;;;;;5.00;5.00;;;;;21.70;57.17;100779.58;110111;1251;19647;-34
2023/10/23 07:14:24;;;;;;;;;4.00;4.00;;;;;21.71;56.74;100777.95;110115;1265;18656;-34
2023/10/23 07:16:51;;;;;;;;;5.67;5.00;;;;;21.69;56.89;100782.20;110085;1250;20762;-34
2023/10/23 07:19:19;;;;;;;;;4.50;4.50;;;;;21.68;56.87;100777.07;110092;1265;22929;-34
2023/10/23 07:21:46;;;;;;;;;7.00;7.00;;;;;21.69;56.57;100774.84;110131;1265;18656;-34
2023/10/23 07:24:14;;;;;;;;;7.50;6.00;;;;;21.67;56.55;100775.55;110143;1265;19401;-35
2023/10/23 07:26:41;;;;;;;;;5.00;4.50;;;;;21.68;56.54;100775.21;110142;1266;22258;-36
2023/10/23 07:29:08;;;;;;;;;7.00;7.00;;;;;21.73;56.02;100780.88;110150;1265;20291;-34
2023/10/23 07:31:36;;;;;;;;;9.67;9.00;;;;;21.77;55.97;100784.64;110113;1250;22220;-33
2023/10/23 07:34:04;;;;;;;;;5.00;5.00;;;;;21.76;55.82;100785.73;110138;1250;20044;-34
2023/10/23 07:36:32;;;;;;;;;7.00;5.00;;;;;21.72;55.96;100791.02;110095;1266;22851;-34
2023/10/23 07:38:59;;;;;;;;;8.00;7.00;;;;;21.78;55.47;100794.45;110112;1253;20797;-34
2023/10/23 07:41:27;;;;;;;;;4.50;4.50;;;;;21.70;55.71;100795.61;110153;1249;19731;-34
2023/10/23 07:43:54;;;;;;;;;8.00;8.00;;;;;21.65;56.54;100798.45;110094;1250;22687;-34
2023/10/23 07:46:22;;;;;;;;;10.00;10.00;;;;;21.64;56.13;100797.80;110097;1250;19485;-35
2023/10/23 07:48:49;;;;;;;;;13.00;11.50;;;;;21.53;55.64;100797.98;110147;1265;18493;-34
2023/10/23 07:51:17;;;;;;;;;12.00;12.00;;;;;21.48;55.26;100800.65;110125;1251;21674;-34
2023/10/23 07:53:44;;;;;;;;;15.00;14.00;;;;;21.40;55.31;100802.11;110140;1265;22994;-35
2023/10/23 07:56:12;;;;;;;;;22.00;17.00;;;;;21.38;54.46;100805.50;110102;1265;20089;-35
2023/10/23 07:58:40;;;;;;;;;18.00;16.50;;;;;21.35;53.91;100802.61;110167;1249;22877;-35
2023/10/23 08:01:08;;;;;;;;;19.00;14.00;;;;;21.46;53.24;100802.89;110108;1250;21201;-34
2023/10/23 08:03:35;;;;;;;;;21.00;17.00;;;;;21.45;52.79;100807.14;110161;1257;20006;-35
2023/10/23 08:06:03;;;;;;;;;18.00;15.00;;;;;21.49;52.06;100807.25;110130;1259;18781;-34
2023/10/23 08:08:31;;;;;;;;;19.00;14.00;;;;;21.40;52.17;100807.30;110154;1253;20795;-34
2023/10/23 08:10:58;;;;;;;;;17.00;17.00;;;;;21.43;51.95;100805.12;110156;1251;20106;-34
2023/10/23 08:13:26;;;;;;;;;17.67;14.00;;;;;21.40;51.56;100801.20;110149;1252;20008;-34
2023/10/23 08:15:54;;;;;;;;;15.00;15.00;;;;;21.38;51.44;100807.41;110122;1253;20771;-34
2023/10/23 08:18:21;;;;;;;;;20.00;18.50;;;;;21.49;50.93;100812.48;110090;1265;19926;-34
2023/10/23 08:20:48;;;;;;;;;21.00;17.50;;;;;21.48;50.48;100808.98;110110;1266;18857;-33
2023/10/23 08:23:16;;;;;;;;;17.50;17.00;;;;;21.51;49.69;100803.75;110110;1265;19310;-34
2023/10/23 08:25:44;;;;;;;;;22.00;19.00;;;;;21.47;49.88;100805.39;110123;1250;20084;-34
2023/10/23 08:28:11;;;;;;;;;22.00;21.00;;;;;21.49;50.11;100811.66;110131;1266;18941;-34
2023/10/23 08:30:39;;;;;;;;;21.00;21.00;;;;;21.43;49.94;100811.98;110143;1265;19389;-35
2023/10/23 08:33:07;;;;;;;;;20.00;18.50;;;;;21.47;49.79;100808.55;110136;1253;20086;-34
2023/10/23 08:35:34;;;;;;;;;21.00;18.00;;;;;21.53;49.74;100804.36;110121;1253;19232;-35
2023/10/23 08:38:02;;;;;;;;;22.00;18.00;;;;;21.54;49.79;100811.38;110126;1265;19293;-33
2023/10/23 08:40:29;;;;;;;;;26.00;22.00;;;;;21.57;49.33;100814.16;110124;1265;18566;-34
2023/10/23 08:42:57;;;;;;;;;22.00;21.00;;;;;21.53;49.64;100815.58;110127;1265;19881;-33
2023/10/23 08:45:24;;;;;;;;;23.00;20.00;;;;;21.36;49.63;100817.44;110103;1251;22302;-34
2023/10/23 08:47:52;;;;;;;;;21.00;21.00;;;;;21.12;50.25;100819.58;110136;1253;20256;-34
2023/10/23 08:50:20;;;;;;;;;19.00;18.00;;;;;21.07;49.91;100818.04;110104;1265;20136;-34
2023/10/23 08:52:47;;;;;;;;;23.00;20.00;;;;;21.17;49.55;100815.77;110117;1250;20738;-35
2023/10/23 08:55:14;;;;;;;;;24.00;22.00;;;;;21.14;49.18;100819.46;110072;1253;22176;-35
2023/10/23 08:57:42;;;;;;;;;20.50;18.00;;;;;21.03;49.73;100819.66;110038;1265;18805;-35
2023/10/23 09:00:10;;;;;;;;;21.00;18.00;;;;;20.96;49.77;100822.11;110130;1259;20554;-35
2023/10/23 09:02:37;;;;;;;;;17.00;15.00;;;;;20.98;49.96;100819.21;110129;1265;19105;-34
2023/10/23 09:05:05;;;;;;;;;22.33;17.67;;;;;20.91;50.67;100821.16;110120;1250;18680;-34
2023/10/23 09:07:32;;;;;;;;;20.00;19.50;;;;;20.99;50.44;100821.95;110018;1265;19494;-34
2023/10/23 09:10:00;;;;;;;;;15.00;15.00;;;;;20.95;50.92;100820.74;110073;1253;20014;-34
2023/10/23 09:12:27;;;;;;;;;16.00;15.00;;;;;21.00;50.81;100821.63;110106;1265;20009;-34
2023/10/23 09:14:55;;;;;;;;;15.00;15.00;;;;;21.11;50.71;100813.80;110132;1253;20920;-34
2023/10/23 09:17:23;;;;;;;;;14.00;13.00;;;;;21.17;50.67;100818.86;110122;1251;21187;-34
2023/10/23 09:19:50;;;;;;;;;16.00;16.00;;;;;21.15;50.66;100822.52;110078;1257;18768;-34
2023/10/23 09:22:18;;;;;;;;;17.00;14.00;;;;;21.12;50.62;100826.59;110124;1258;20702;-33
2023/10/23 09:24:46;;;;;;;;;18.00;14.50;;;;;21.17;50.68;100824.81;110110;1250;22160;-33
2023/10/23 09:27:13;;;;;;;;;12.00;11.00;;;;;21.17;50.27;100826.72;110097;1250;20086;-34
2023/10/23 09:29:40;;;;;;;;;11.00;11.00;;;;;21.20;50.02;100826.17;110105;1265;19297;-33
2023/10/23 09:32:08;;;;;;;;;15.00;14.00;;;;;21.21;49.76;100827.05;110103;1265;19981;-33
2023/10/23 09:34:35;;;;;;;;;14.00;12.00;;;;;21.27;49.61;100828.50;110124;1265;18873;-34
2023/10/23 09:37:05;;;;;;;;;11.00;11.00;;;;;21.27;49.57;100826.26;110146;1251;20782;-34
2023/10/23 09:39:32;;;;;;;;;12.50;11.00;;;;;21.21;49.49;100826.95;110135;1251;20062;-33
2023/10/23 09:42:00;;;;;;;;;16.67;14.00;;;;;21.26;49.07;100824.19;110134;1259;20352;-33
2023/10/23 09:44:27;;;;;;;;;12.00;11.00;;;;;21.00;49.50;100829.73;110116;1253;20743;-33
2023/10/23 09:46:55;;;;;;;;;13.00;13.00;;;;;21.11;49.27;100828.61;110130;1265;18659;-33
2023/10/23 09:49:22;;;;;;;;;13.00;12.00;;;;;21.09;48.96;100828.22;110131;1251;21440;-33
2023/10/23 09:51:50;;;;;;;;;12.00;12.00;;;;;21.15;49.09;100823.23;110154;1265;19354;-33
2023/10/23 09:54:19;;;;;;;;;12.00;12.00;;;;;21.21;48.81;100819.64;110135;1253;19952;-34
2023/10/23 09:56:46;;;;;;;;;12.00;11.50;;;;;21.18;48.85;100816.63;110175;1250;20145;-34
2023/10/23 09:59:14;;;;;;;;;10.00;10.00;;;;;21.15;48.65;100820.94;110133;1265;21966;-34
2023/10/23 10:01:41;;;;;;;;;11.00;11.00;;;;;21.21;48.78;100817.04;110067;1252;20091;-34
2023/10/23 10:04:09;;;;;;;;;10.00;10.00;;;;;21.15;48.51;100811.45;110051;1250;21178;-33
2023/10/23 10:06:36;;;;;;;;;12.00;11.00;;;;;21.12;48.72;100809.77;110099;1262;20781;-34
2023/10/23 10:09:04;;;;;;;;;13.00;11.00;;;;;21.07;48.20;100808.61;110099;1249;22187;-34
2023/10/23 10:11:31;;;;;;;;;8.00;8.00;;;;;20.94;48.50;100810.83;110175;1253;22393;-34
2023/10/23 10:13:59;;;;;;;;;8.00;8.00;;;;;20.96;48.37;100806.09;110134;1253;20631;-33
2023/10/23 10:16:26;;;;;;;;;7.00;7.00;;;;;21.00;47.78;100808.17;110153;1265;18425;-33
2023/10/23 10:18:53;;;;;;;;;8.00;8.00;;;;;21.00;47.84;100801.91;110123;1265;20439;-34
2023/10/23 10:21:21;;;;;;;;;8.00;8.00;;;;;20.99;47.57;100800.76;110123;1252;20935;-34
2023/10/23 10:23:48;;;;;;;;;9.00;8.00;;;;;20.95;47.29;100797.77;110117;1265;20576;-33
2023/10/23 10:26:16;;;;;;;;;10.50;8.00;;;;;20.82;48.04;100805.15;110125;1252;20470;-34
2023/10/23 10:28:43;;;;;;;;;7.00;7.00;;;;;20.81;48.11;100803.24;110108;1249;21147;-34
2023/10/23 10:31:11;;;;;;;;;8.00;7.50;;;;;20.87;48.21;100799.16;110085;1252;20020;-34
2023/10/23 10:33:41;;;;;;;;;8.00;5.00;;;;;20.94;47.85;100800.42;110125;1253;20982;-34
2023/10/23 10:36:08;;;;;;;;;7.00;7.00;;;;;20.97;47.38;100796.45;110157;1265;20704;-33
2023/10/23 10:38:35;;;;;;;;;6.00;6.00;;;;;20.95;47.16;100793.57;110122;1249;23657;-35
2023/10/23 10:41:03;;;;;;;;;8.00;7.00;;;;;20.97;46.91;100791.83;110159;1251;19995;-34
2023/10/23 10:43:31;;;;;;;;;7.00;7.00;;;;;20.79;47.16;100788.71;110196;1265;19355;-33
2023/10/23 10:45:58;;;;;;;;;4.67;4.67;;;;;20.71;47.14;100789.62;110116;1265;18633;-34
2023/10/23 10:48:26;;;;;;;;;7.00;5.00;;;;;20.71;47.19;100789.58;110033;1266;20230;-33
2023/10/23 10:50:53;;;;;;;;;7.00;7.00;;;;;20.81;46.88;100788.16;110130;1251;22174;-33
2023/10/23 10:53:20;;;;;;;;;5.00;5.00;;;;;20.81;46.98;100785.16;110113;1265;18698;-33
2023/10/23 10:55:48;;;;;;;;;8.00;7.00;;;;;20.79;46.97;100784.30;110147;1250;22961;-34
2023/10/23 10:58:15;;;;;;;;;8.00;8.00;;;;;20.83;47.23;100777.86;110145;1252;20773;-34
2023/10/23 11:00:43;;;;;;;;;8.00;8.00;;;;;20.89;46.94;100781.73;110116;1253;23258;-34
2023/10/23 11:03:10;;;;;;;;;8.00;8.00;;;;;20.72;47.25;100782.77;110101;1253;20105;-34
2023/10/23 11:05:40;;;;;;;;;7.67;7.00;;;;;20.66;47.35;100780.15;110097;1265;20731;-34
2023/10/23 11:08:07;;;;;;;;;10.00;8.00;;;;;20.72;47.52;100785.44;110047;1253;19623;-35
2023/10/23 11:10:34;;;;;;;;;8.00;8.00;;;;;20.65;47.60;100784.88;110014;1259;19942;-34
2023/10/23 11:13:02;;;;;;;;;7.00;7.00;;;;;20.48;48.00;100783.20;110071;1250;19575;-34
2023/10/23 11:15:30;;;;;;;;;6.50;6.00;;;;;20.53;47.64;100782.12;110062;1253;19994;-34